Time;durP1;ratioP1;P1;durP2;ratioP2;P2;SDS_P1;SDS_P2;PMS_P1;PMS_P2;Temp;Humidity;BMP_temperature;BMP_pressure;BME280_temperature;BME280_humidity;BME280_pressure;Samples;Min_cycle;Max_cycle;Signal;HPM_P1;HPM_P2
2021/10/05 00:00:19;;;;;;;;;0.50;0.50;;;;;;;;5062228;28;8942;-79
2021/10/05 00:02:48;;;;;;;;;0.50;0.50;;;;;;;;5061634;28;8934;-80
2021/10/05 00:05:17;;;;;;;;;0.25;0.25;;;;;;;;5062331;28;8868;-79
2021/10/05 00:07:45;;;;;;;;;0.50;0.50;;;;;;;;5062886;28;8939;-79
2021/10/05 00:10:13;;;;;;;;;0.00;0.00;;;;;;;;5061701;28;8961;-79
2021/10/05 00:12:41;;;;;;;;;0.50;0.50;;;;;;;;5063118;28;8881;-78
2021/10/05 00:15:10;;;;;;;;;1.00;1.00;;;;;;;;5062317;28;10964;-76
2021/10/05 00:17:37;;;;;;;;;0.00;0.00;;;;;;;;5065603;28;8898;-81
2021/10/05 00:20:07;;;;;;;;;1.00;1.00;;;;;;;;5061240;28;8974;-79
2021/10/05 00:22:35;;;;;;;;;0.00;0.00;;;;;;;;5061905;28;8963;-79
2021/10/05 00:25:03;;;;;;;;;1.00;1.00;;;;;;;;5063268;28;8856;-79
2021/10/05 00:27:30;;;;;;;;;1.00;1.00;;;;;;;;5061203;28;8905;-78
2021/10/05 00:29:58;;;;;;;;;0.00;0.00;;;;;;;;5047515;28;8870;-78
2021/10/05 00:32:26;;;;;;;;;1.25;1.00;;;;;;;;5063970;28;8793;-80
2021/10/05 00:34:53;;;;;;;;;1.00;1.00;;;;;;;;5063510;28;8870;-80
2021/10/05 00:37:21;;;;;;;;;1.75;1.75;;;;;;;;5063240;28;8864;-81
2021/10/05 00:39:50;;;;;;;;;0.00;0.00;;;;;;;;5066898;28;8976;-81
2021/10/05 00:42:18;;;;;;;;;0.00;0.00;;;;;;;;5066007;28;8856;-82
2021/10/05 00:44:45;;;;;;;;;0.75;0.75;;;;;;;;5065450;28;8844;-81
2021/10/05 00:47:15;;;;;;;;;2.25;2.25;;;;;;;;5066349;28;8899;-81
2021/10/05 00:49:44;;;;;;;;;0.75;0.75;;;;;;;;5065508;28;8904;-81
2021/10/05 00:52:13;;;;;;;;;1.00;1.00;;;;;;;;5067250;28;8899;-82
2021/10/05 00:54:42;;;;;;;;;0.00;0.00;;;;;;;;5064021;28;8864;-81
2021/10/05 00:57:12;;;;;;;;;0.75;0.75;;;;;;;;5064804;28;8856;-80
2021/10/05 00:59:40;;;;;;;;;2.50;1.00;;;;;;;;5065741;28;8876;-77
2021/10/05 01:02:10;;;;;;;;;1.25;1.25;;;;;;;;5062600;28;8841;-82
2021/10/05 01:04:37;;;;;;;;;2.00;2.00;;;;;;;;5065796;28;8852;-79
2021/10/05 01:07:07;;;;;;;;;1.00;1.00;;;;;;;;5063396;28;8888;-80
2021/10/05 01:09:36;;;;;;;;;3.25;1.00;;;;;;;;5059145;28;8848;-77
2021/10/05 01:12:05;;;;;;;;;0.50;0.50;;;;;;;;5064125;28;8949;-79
2021/10/05 01:14:34;;;;;;;;;1.25;1.25;;;;;;;;5065631;28;8963;-75
2021/10/05 01:17:06;;;;;;;;;1.00;1.00;;;;;;;;5055235;28;8864;-79
2021/10/05 01:19:34;;;;;;;;;1.00;1.00;;;;;;;;5065449;28;8875;-79
2021/10/05 01:22:03;;;;;;;;;4.00;3.00;;;;;;;;5063504;28;8845;-81
2021/10/05 01:24:31;;;;;;;;;1.00;1.00;;;;;;;;5063482;28;8862;-79
2021/10/05 01:26:59;;;;;;;;;1.00;1.00;;;;;;;;5062030;28;9605;-79
2021/10/05 01:29:29;;;;;;;;;0.50;0.50;;;;;;;;5061050;28;8887;-81
2021/10/05 01:31:58;;;;;;;;;1.50;1.00;;;;;;;;5044157;28;8813;-78
2021/10/05 01:34:25;;;;;;;;;0.75;0.75;;;;;;;;5042160;28;9594;-81
2021/10/05 01:36:54;;;;;;;;;0.25;0.25;;;;;;;;5062698;28;8872;-77
2021/10/05 01:39:25;;;;;;;;;2.50;1.00;;;;;;;;5062685;28;8844;-80
2021/10/05 01:41:53;;;;;;;;;1.00;1.00;;;;;;;;5058898;28;8898;-80
2021/10/05 01:44:20;;;;;;;;;2.00;0.25;;;;;;;;5063673;28;8856;-81
2021/10/05 01:46:49;;;;;;;;;2.75;1.75;;;;;;;;5059922;28;8856;-78
2021/10/05 01:49:16;;;;;;;;;2.50;1.00;;;;;;;;5062979;28;8864;-79
2021/10/05 01:51:44;;;;;;;;;1.00;1.00;;;;;;;;5061469;28;8868;-81
2021/10/05 01:54:13;;;;;;;;;1.00;1.00;;;;;;;;5063429;28;8868;-82
2021/10/05 01:56:42;;;;;;;;;1.25;1.25;;;;;;;;5061847;28;8831;-80
2021/10/05 01:59:10;;;;;;;;;1.25;1.25;;;;;;;;5059031;28;8987;-80
2021/10/05 02:01:38;;;;;;;;;1.00;1.00;;;;;;;;5060217;28;8816;-79
2021/10/05 02:04:06;;;;;;;;;1.00;1.00;;;;;;;;5061055;28;9751;-81
2021/10/05 02:06:33;;;;;;;;;1.00;1.00;;;;;;;;5062334;28;8876;-80
2021/10/05 02:09:01;;;;;;;;;1.00;1.00;;;;;;;;5061811;28;8828;-79
2021/10/05 02:11:28;;;;;;;;;1.00;1.00;;;;;;;;5061632;28;8896;-79
2021/10/05 02:13:57;;;;;;;;;1.00;1.00;;;;;;;;5062063;28;8966;-78
2021/10/05 02:16:24;;;;;;;;;1.50;1.50;;;;;;;;5060751;28;8941;-80
2021/10/05 02:18:52;;;;;;;;;2.50;2.00;;;;;;;;5062055;28;8925;-78
2021/10/05 02:21:20;;;;;;;;;3.75;1.00;;;;;;;;5059226;28;8888;-79
2021/10/05 02:26:33;;;;;;;;;2.50;1.25;;;;;;;;5060288;28;8867;-78
2021/10/05 02:29:02;;;;;;;;;1.00;1.00;;;;;;;;5057941;28;8880;-78
2021/10/05 02:31:29;;;;;;;;;1.00;1.00;;;;;;;;5060836;28;8839;-80
2021/10/05 02:33:57;;;;;;;;;0.50;0.50;;;;;;;;5061443;28;9008;-82
2021/10/05 02:36:25;;;;;;;;;1.00;1.00;;;;;;;;5063378;28;8840;-81
2021/10/05 02:38:52;;;;;;;;;1.00;1.00;;;;;;;;5061903;28;8856;-76
2021/10/05 02:41:19;;;;;;;;;1.00;1.00;;;;;;;;5062254;28;8860;-79
2021/10/05 02:43:47;;;;;;;;;0.25;0.25;;;;;;;;5060348;28;8966;-77
2021/10/05 02:46:16;;;;;;;;;0.25;0.25;;;;;;;;5061286;28;8856;-81
2021/10/05 02:48:43;;;;;;;;;1.25;1.25;;;;;;;;5061089;28;8894;-77
2021/10/05 02:51:10;;;;;;;;;1.50;0.50;;;;;;;;5060697;28;8872;-79
2021/10/05 02:53:38;;;;;;;;;2.75;0.50;;;;;;;;5044011;28;8840;-79
2021/10/05 02:56:06;;;;;;;;;1.75;1.00;;;;;;;;5060935;28;9057;-77
2021/10/05 02:58:33;;;;;;;;;0.75;0.75;;;;;;;;5059859;28;9588;-80
2021/10/05 03:01:00;;;;;;;;;1.00;1.00;;;;;;;;5042183;28;8845;-80
2021/10/05 03:03:30;;;;;;;;;3.00;1.25;;;;;;;;5062818;28;8894;-79
2021/10/05 03:05:57;;;;;;;;;0.00;0.00;;;;;;;;5060364;28;9007;-79
2021/10/05 03:08:29;;;;;;;;;1.00;1.00;;;;;;;;5061914;28;8894;-80
2021/10/05 03:10:56;;;;;;;;;1.00;1.00;;;;;;;;5060541;28;8880;-78
2021/10/05 03:13:24;;;;;;;;;2.50;1.00;;;;;;;;5059269;28;8865;-78
2021/10/05 03:15:52;;;;;;;;;0.75;0.75;;;;;;;;5060706;28;8852;-80
2021/10/05 03:18:19;;;;;;;;;0.75;0.50;;;;;;;;5057120;28;8892;-82
2021/10/05 03:20:49;;;;;;;;;1.25;1.25;;;;;;;;5061607;28;8894;-81
2021/10/05 03:23:16;;;;;;;;;1.00;1.00;;;;;;;;5043347;28;8879;-81
2021/10/05 03:25:43;;;;;;;;;1.00;1.00;;;;;;;;5061762;28;8872;-81
2021/10/05 03:28:11;;;;;;;;;1.00;1.00;;;;;;;;5053370;28;8902;-82
2021/10/05 03:30:38;;;;;;;;;1.00;1.00;;;;;;;;5060744;28;8844;-77
2021/10/05 03:33:05;;;;;;;;;1.00;1.00;;;;;;;;5060125;28;9645;-77
2021/10/05 03:35:33;;;;;;;;;3.00;1.50;;;;;;;;5060244;28;9003;-78
2021/10/05 03:38:02;;;;;;;;;4.25;3.00;;;;;;;;5061073;28;8836;-79
2021/10/05 03:40:30;;;;;;;;;3.00;3.00;;;;;;;;5059859;28;8876;-80
2021/10/05 03:42:57;;;;;;;;;2.00;2.00;;;;;;;;5060774;28;8876;-79
2021/10/05 03:45:25;;;;;;;;;2.75;2.75;;;;;;;;5059697;28;9014;-79
2021/10/05 03:47:52;;;;;;;;;3.25;2.25;;;;;;;;5043769;28;8911;-79
2021/10/05 03:50:20;;;;;;;;;3.25;3.00;;;;;;;;5060625;28;8883;-79
2021/10/05 03:52:47;;;;;;;;;2.00;2.00;;;;;;;;5059894;28;8964;-79
2021/10/05 03:55:16;;;;;;;;;2.75;2.75;;;;;;;;5060388;28;8963;-81
2021/10/05 03:57:43;;;;;;;;;2.50;2.50;;;;;;;;5059346;28;8865;-79
2021/10/05 04:00:12;;;;;;;;;4.00;2.25;;;;;;;;5063419;28;8863;-78
2021/10/05 04:02:39;;;;;;;;;2.25;2.25;;;;;;;;5046167;28;8860;-79
2021/10/05 04:05:08;;;;;;;;;2.00;2.00;;;;;;;;5064398;28;8884;-77
2021/10/05 04:07:41;;;;;;;;;4.25;4.25;;;;;;;;5070834;28;8965;-78
2021/10/05 04:10:09;;;;;;;;;3.00;3.00;;;;;;;;5045569;28;9634;-77
2021/10/05 04:12:37;;;;;;;;;3.75;3.75;;;;;;;;5065765;28;8986;-77
2021/10/05 04:15:06;;;;;;;;;4.00;2.25;;;;;;;;5062765;28;9617;-81
2021/10/05 04:17:34;;;;;;;;;1.00;1.00;;;;;;;;5060234;28;8972;-76
2021/10/05 04:20:01;;;;;;;;;4.00;3.00;;;;;;;;5046478;28;8852;-78
2021/10/05 04:22:29;;;;;;;;;4.75;4.00;;;;;;;;5064967;28;8868;-75
2021/10/05 04:24:56;;;;;;;;;4.25;3.00;;;;;;;;5064328;28;8856;-79
2021/10/05 04:27:24;;;;;;;;;3.50;3.50;;;;;;;;5064638;28;8966;-79
2021/10/05 04:29:52;;;;;;;;;3.00;3.00;;;;;;;;5064039;28;8874;-80
2021/10/05 04:32:20;;;;;;;;;3.00;3.00;;;;;;;;5062056;28;9696;-78
2021/10/05 04:34:48;;;;;;;;;4.00;3.00;;;;;;;;5063657;28;8872;-79
2021/10/05 04:37:15;;;;;;;;;4.75;2.50;;;;;;;;5063171;28;9457;-82
2021/10/05 04:39:42;;;;;;;;;2.00;2.00;;;;;;;;5063165;28;8995;-80
2021/10/05 04:42:10;;;;;;;;;3.75;3.00;;;;;;;;5064637;28;8857;-80
2021/10/05 04:44:38;;;;;;;;;4.75;3.00;;;;;;;;5065525;28;8868;-80
2021/10/05 04:47:07;;;;;;;;;5.25;3.00;;;;;;;;5064760;28;8860;-77
2021/10/05 04:49:35;;;;;;;;;3.00;3.00;;;;;;;;5061357;28;8878;-81
2021/10/05 04:52:02;;;;;;;;;4.00;2.50;;;;;;;;5062534;28;8860;-78
2021/10/05 04:54:30;;;;;;;;;3.50;3.50;;;;;;;;5059285;28;8866;-79
2021/10/05 04:56:57;;;;;;;;;2.00;2.00;;;;;;;;5060270;28;8987;-83
2021/10/05 04:59:25;;;;;;;;;4.00;4.00;;;;;;;;5059808;28;8967;-78
2021/10/05 05:01:52;;;;;;;;;3.00;3.00;;;;;;;;5063139;28;8892;-82
2021/10/05 05:04:21;;;;;;;;;3.50;2.00;;;;;;;;5059967;28;8974;-75
2021/10/05 05:06:48;;;;;;;;;3.00;3.00;;;;;;;;5062576;28;8852;-73
2021/10/05 05:09:15;;;;;;;;;1.50;1.50;;;;;;;;5059763;28;9005;-73
2021/10/05 05:11:43;;;;;;;;;3.75;2.75;;;;;;;;5062881;28;8849;-77
2021/10/05 05:14:11;;;;;;;;;3.00;3.00;;;;;;;;5063346;28;8957;-75
2021/10/05 05:16:41;;;;;;;;;4.00;2.00;;;;;;;;5062777;28;8998;-78
2021/10/05 05:19:09;;;;;;;;;1.00;1.00;;;;;;;;5062109;28;8876;-73
2021/10/05 05:21:38;;;;;;;;;2.00;2.00;;;;;;;;5059293;28;8886;-77
2021/10/05 05:24:06;;;;;;;;;4.00;2.50;;;;;;;;5043015;28;8868;-76
2021/10/05 05:26:33;;;;;;;;;2.75;2.75;;;;;;;;5058387;28;8902;-81
2021/10/05 05:29:01;;;;;;;;;5.00;2.00;;;;;;;;5060099;28;8965;-78
2021/10/05 05:31:28;;;;;;;;;2.25;2.00;;;;;;;;5060451;28;8812;-83
2021/10/05 05:33:55;;;;;;;;;2.50;1.75;;;;;;;;5058054;28;8868;-78
2021/10/05 05:36:22;;;;;;;;;1.50;1.50;;;;;;;;5062882;28;8963;-81
2021/10/05 05:38:51;;;;;;;;;2.00;2.00;;;;;;;;5060337;28;8901;-79
2021/10/05 05:41:18;;;;;;;;;1.00;1.00;;;;;;;;5059535;28;9050;-76
2021/10/05 05:43:46;;;;;;;;;1.00;1.00;;;;;;;;5057185;28;8868;-77
2021/10/05 05:46:13;;;;;;;;;2.25;2.25;;;;;;;;5055789;28;9642;-79
2021/10/05 05:48:41;;;;;;;;;2.00;2.00;;;;;;;;5058300;28;8856;-77
2021/10/05 05:51:09;;;;;;;;;2.00;2.00;;;;;;;;5057915;28;8864;-78
2021/10/05 05:53:36;;;;;;;;;3.50;2.25;;;;;;;;5060052;28;8883;-75
2021/10/05 05:56:05;;;;;;;;;4.25;2.75;;;;;;;;5063456;28;9540;-74
2021/10/05 05:58:32;;;;;;;;;2.25;2.00;;;;;;;;5064268;28;8867;-75
2021/10/05 06:01:00;;;;;;;;;2.50;2.50;;;;;;;;5043940;28;9550;-75
2021/10/05 06:03:27;;;;;;;;;2.75;2.75;;;;;;;;5065533;28;8982;-74
2021/10/05 06:05:55;;;;;;;;;3.75;2.75;;;;;;;;5064659;28;8868;-74
2021/10/05 06:08:22;;;;;;;;;2.00;2.00;;;;;;;;5063596;28;8890;-75
2021/10/05 06:10:49;;;;;;;;;3.25;2.25;;;;;;;;5065574;28;8979;-74
2021/10/05 06:13:18;;;;;;;;;3.00;1.25;;;;;;;;5064322;28;8955;-74
2021/10/05 06:15:45;;;;;;;;;2.00;2.00;;;;;;;;5062471;28;8902;-75
2021/10/05 06:18:12;;;;;;;;;2.00;2.00;;;;;;;;5063972;28;8884;-75
2021/10/05 06:20:40;;;;;;;;;4.00;2.75;;;;;;;;5063891;28;8880;-74
2021/10/05 06:23:07;;;;;;;;;5.00;3.00;;;;;;;;5059026;28;8872;-75
2021/10/05 06:25:40;;;;;;;;;3.00;3.00;;;;;;;;5056800;28;10109;-75
2021/10/05 06:28:07;;;;;;;;;3.75;1.00;;;;;;;;5058306;28;8852;-74
2021/10/05 06:30:37;;;;;;;;;3.25;3.00;;;;;;;;5060764;28;8769;-74
2021/10/05 06:33:04;;;;;;;;;2.50;2.00;;;;;;;;5055764;28;8852;-74
2021/10/05 06:35:32;;;;;;;;;3.00;2.00;;;;;;;;5057335;28;8884;-74
2021/10/05 06:38:01;;;;;;;;;3.00;3.00;;;;;;;;5059103;28;8836;-74
2021/10/05 06:40:30;;;;;;;;;1.00;1.00;;;;;;;;5057864;28;8870;-74
2021/10/05 06:42:57;;;;;;;;;1.50;1.50;;;;;;;;5056035;28;8985;-73
2021/10/05 06:45:24;;;;;;;;;2.25;2.00;;;;;;;;5040130;28;8882;-73
2021/10/05 06:47:53;;;;;;;;;9.00;9.00;;;;;;;;5058000;28;8990;-72
2021/10/05 06:50:22;;;;;;;;;2.75;2.00;;;;;;;;5057834;28;8868;-72
2021/10/05 06:52:50;;;;;;;;;52.00;33.33;;;;;;;;5039496;28;8900;-74
2021/10/05 06:55:17;;;;;;;;;3.00;3.00;;;;;;;;5057697;28;9019;-72
2021/10/05 06:57:45;;;;;;;;;2.00;2.00;;;;;;;;5060479;28;9634;-73
2021/10/05 07:00:15;;;;;;;;;3.00;2.00;;;;;;;;5056638;28;8856;-74
2021/10/05 07:02:43;;;;;;;;;2.00;2.00;;;;;;;;5060307;28;9682;-73
2021/10/05 07:05:12;;;;;;;;;1.00;1.00;;;;;;;;5055719;28;8875;-73
2021/10/05 07:07:40;;;;;;;;;1.00;1.00;;;;;;;;5058815;28;8860;-74
2021/10/05 07:10:09;;;;;;;;;2.00;1.00;;;;;;;;5057334;28;8861;-73
2021/10/05 07:12:36;;;;;;;;;1.00;1.00;;;;;;;;5058700;28;8881;-74
2021/10/05 07:15:05;;;;;;;;;1.00;1.00;;;;;;;;5059297;28;8877;-74
2021/10/05 07:17:34;;;;;;;;;1.00;1.00;;;;;;;;5061368;28;8941;-74
2021/10/05 07:20:02;;;;;;;;;1.25;1.25;;;;;;;;5061439;28;8914;-74
2021/10/05 07:22:31;;;;;;;;;2.00;2.00;;;;;;;;5061444;28;8901;-73
2021/10/05 07:24:58;;;;;;;;;1.75;1.75;;;;;;;;5042281;28;8860;-75
2021/10/05 07:27:26;;;;;;;;;1.00;1.00;;;;;;;;5058794;28;8852;-74
2021/10/05 07:29:53;;;;;;;;;2.00;0.25;;;;;;;;5056331;28;8890;-73
2021/10/05 07:32:21;;;;;;;;;1.50;1.50;;;;;;;;5056254;28;8828;-73
2021/10/05 07:34:48;;;;;;;;;2.25;2.00;;;;;;;;5061085;28;8852;-74
2021/10/05 07:37:15;;;;;;;;;0.00;0.00;;;;;;;;5055193;28;8884;-74
2021/10/05 07:39:44;;;;;;;;;1.75;1.75;;;;;;;;5057615;28;8919;-74
2021/10/05 07:42:13;;;;;;;;;1.00;1.00;;;;;;;;5058621;28;8836;-74
2021/10/05 07:44:40;;;;;;;;;1.50;1.50;;;;;;;;5060193;28;9000;-73
2021/10/05 07:47:09;;;;;;;;;1.00;1.00;;;;;;;;5061622;28;8878;-74
2021/10/05 07:49:37;;;;;;;;;4.00;1.00;;;;;;;;5060644;28;8857;-74
2021/10/05 07:52:04;;;;;;;;;1.00;1.00;;;;;;;;5061904;28;8884;-75
2021/10/05 07:54:32;;;;;;;;;3.25;3.25;;;;;;;;5055856;28;9641;-75
2021/10/05 07:57:01;;;;;;;;;2.00;2.00;;;;;;;;5060016;28;8879;-75
2021/10/05 07:59:28;;;;;;;;;1.25;1.25;;;;;;;;5056687;28;8917;-75
2021/10/05 08:01:55;;;;;;;;;2.00;2.00;;;;;;;;5058758;28;8844;-75
2021/10/05 08:04:23;;;;;;;;;0.25;0.25;;;;;;;;5060872;28;8868;-75
2021/10/05 08:06:51;;;;;;;;;0.75;0.75;;;;;;;;5061009;28;8979;-75
2021/10/05 08:09:19;;;;;;;;;1.75;1.75;;;;;;;;5060200;28;8844;-75
2021/10/05 08:11:46;;;;;;;;;1.00;1.00;;;;;;;;5060276;28;8891;-75
2021/10/05 08:14:15;;;;;;;;;2.00;2.00;;;;;;;;5060278;28;8868;-75
2021/10/05 08:16:44;;;;;;;;;0.00;0.00;;;;;;;;5059277;28;8873;-75
2021/10/05 08:19:11;;;;;;;;;0.00;0.00;;;;;;;;5060062;28;9007;-75
2021/10/05 08:21:39;;;;;;;;;1.00;1.00;;;;;;;;5060215;28;8968;-76
2021/10/05 08:24:06;;;;;;;;;0.00;0.00;;;;;;;;5059311;28;8876;-76
2021/10/05 08:26:34;;;;;;;;;1.00;1.00;;;;;;;;5060793;28;8872;-76
2021/10/05 08:29:01;;;;;;;;;1.50;1.25;;;;;;;;5057749;28;8970;-74
2021/10/05 08:31:30;;;;;;;;;1.25;1.25;;;;;;;;5061693;28;8836;-75
2021/10/05 08:33:57;;;;;;;;;1.00;1.00;;;;;;;;5057626;28;8941;-75
2021/10/05 08:36:25;;;;;;;;;0.50;0.50;;;;;;;;5062034;28;9019;-75
2021/10/05 08:38:52;;;;;;;;;1.50;0.50;;;;;;;;5039923;28;8933;-75
2021/10/05 08:41:19;;;;;;;;;0.00;0.00;;;;;;;;5058954;28;9046;-75
2021/10/05 08:43:47;;;;;;;;;0.25;0.25;;;;;;;;5060065;28;8896;-74
2021/10/05 08:46:14;;;;;;;;;1.00;1.00;;;;;;;;5064941;28;8883;-74
2021/10/05 08:48:43;;;;;;;;;0.75;0.75;;;;;;;;5062796;28;8864;-74
2021/10/05 08:51:10;;;;;;;;;1.00;1.00;;;;;;;;5062330;28;8844;-75
2021/10/05 08:53:38;;;;;;;;;0.00;0.00;;;;;;;;5061192;28;8882;-75
2021/10/05 08:56:08;;;;;;;;;7.25;7.25;;;;;;;;5060594;28;8888;-74
2021/10/05 08:58:36;;;;;;;;;1.00;1.00;;;;;;;;5056186;28;8884;-74
2021/10/05 09:01:11;;;;;;;;;1.00;1.00;;;;;;;;5062023;28;8801;-74
2021/10/05 09:03:39;;;;;;;;;1.00;1.00;;;;;;;;5062242;28;8929;-75
2021/10/05 09:06:12;;;;;;;;;0.25;0.25;;;;;;;;5060204;28;8856;-75
2021/10/05 09:08:41;;;;;;;;;1.00;1.00;;;;;;;;5060885;28;8844;-75
2021/10/05 09:11:09;;;;;;;;;1.00;1.00;;;;;;;;5059042;28;8902;-75
2021/10/05 09:13:40;;;;;;;;;1.25;0.00;;;;;;;;5064566;28;8892;-75
2021/10/05 09:16:22;;;;;;;;;0.75;0.75;;;;;;;;5058782;28;8956;-75
2021/10/05 09:18:57;;;;;;;;;1.00;1.00;;;;;;;;5041529;28;8852;-76
2021/10/05 09:21:29;;;;;;;;;1.00;1.00;;;;;;;;5060207;28;8864;-75
2021/10/05 09:23:59;;;;;;;;;3.00;1.75;;;;;;;;5063180;28;8888;-75
2021/10/05 09:26:37;;;;;;;;;0.00;0.00;;;;;;;;5063175;28;8852;-75
2021/10/05 09:29:16;;;;;;;;;1.00;1.00;;;;;;;;5051923;28;8934;-75
2021/10/05 09:31:56;;;;;;;;;1.00;1.00;;;;;;;;5060108;28;8823;-76
2021/10/05 09:34:36;;;;;;;;;1.00;1.00;;;;;;;;5062768;28;8868;-75
2021/10/05 09:37:07;;;;;;;;;1.00;1.00;;;;;;;;5064870;28;8860;-75
2021/10/05 09:39:38;;;;;;;;;0.00;0.00;;;;;;;;5056458;28;8871;-75
2021/10/05 09:42:06;;;;;;;;;1.00;0.75;;;;;;;;5061890;28;8984;-76
2021/10/05 09:44:33;;;;;;;;;1.00;1.00;;;;;;;;5062031;28;8892;-76
2021/10/05 09:47:00;;;;;;;;;1.00;1.00;;;;;;;;5062432;28;8848;-75
2021/10/05 09:49:28;;;;;;;;;1.00;1.00;;;;;;;;5060397;28;8862;-75
2021/10/05 09:52:02;;;;;;;;;1.00;1.00;;;;;;;;5058015;28;8884;-76
2021/10/05 09:54:31;;;;;;;;;1.00;1.00;;;;;;;;5061455;28;8856;-75
2021/10/05 09:56:59;;;;;;;;;0.00;0.00;;;;;;;;5060326;28;8864;-76
2021/10/05 09:59:26;;;;;;;;;1.00;1.00;;;;;;;;5056805;28;8899;-75
2021/10/05 10:01:54;;;;;;;;;1.00;1.00;;;;;;;;5061614;28;8820;-76
2021/10/05 10:04:25;;;;;;;;;2.50;1.00;;;;;;;;5060365;28;8930;-76
2021/10/05 10:06:54;;;;;;;;;0.50;0.25;;;;;;;;5057366;28;9663;-76
2021/10/05 10:09:21;;;;;;;;;0.75;0.75;;;;;;;;5063024;28;9634;-75
2021/10/05 10:11:50;;;;;;;;;0.00;0.00;;;;;;;;5058564;28;8893;-76
2021/10/05 10:14:21;;;;;;;;;1.00;0.00;;;;;;;;5059314;28;8874;-74
2021/10/05 10:16:51;;;;;;;;;1.00;0.00;;;;;;;;5058134;28;8888;-76
2021/10/05 10:19:32;;;;;;;;;0.00;0.00;;;;;;;;5062588;28;8880;-74
2021/10/05 10:22:07;;;;;;;;;0.75;0.00;;;;;;;;5062789;28;8860;-75
2021/10/05 10:24:47;;;;;;;;;0.00;0.00;;;;;;;;5061579;28;9660;-72
2021/10/05 10:27:17;;;;;;;;;0.00;0.00;;;;;;;;5063548;28;8856;-74
2021/10/05 10:29:47;;;;;;;;;0.00;0.00;;;;;;;;5063834;28;8957;-76
2021/10/05 10:32:17;;;;;;;;;0.00;0.00;;;;;;;;5065663;28;8851;-75
2021/10/05 10:34:46;;;;;;;;;0.00;0.00;;;;;;;;5062201;28;9045;-74
2021/10/05 10:37:16;;;;;;;;;0.00;0.00;;;;;;;;5063346;28;9442;-73
2021/10/05 10:39:44;;;;;;;;;1.00;0.00;;;;;;;;5060098;28;8874;-73
2021/10/05 10:42:12;;;;;;;;;0.00;0.00;;;;;;;;5058709;28;8882;-74
2021/10/05 10:44:42;;;;;;;;;0.00;0.00;;;;;;;;5057965;28;8859;-74
2021/10/05 10:47:13;;;;;;;;;0.00;0.00;;;;;;;;5057622;28;8894;-73
2021/10/05 10:49:40;;;;;;;;;0.50;0.00;;;;;;;;5060783;28;8902;-75
2021/10/05 10:52:08;;;;;;;;;0.25;0.25;;;;;;;;5055056;28;8875;-73
2021/10/05 10:54:35;;;;;;;;;0.00;0.00;;;;;;;;5059067;28;8884;-73
2021/10/05 10:57:05;;;;;;;;;0.00;0.00;;;;;;;;5057931;28;8849;-75
2021/10/05 10:59:33;;;;;;;;;0.25;0.25;;;;;;;;5042789;28;8875;-72
2021/10/05 11:02:04;;;;;;;;;0.50;0.00;;;;;;;;5056223;28;8809;-76
2021/10/05 11:04:33;;;;;;;;;0.00;0.00;;;;;;;;5057161;28;8894;-75
2021/10/05 11:07:02;;;;;;;;;0.00;0.00;;;;;;;;5061969;28;8907;-74
2021/10/05 11:09:30;;;;;;;;;0.00;0.00;;;;;;;;5059868;28;8859;-73
2021/10/05 11:11:59;;;;;;;;;0.00;0.00;;;;;;;;5062057;28;8864;-73
2021/10/05 11:14:29;;;;;;;;;0.50;0.50;;;;;;;;5056926;28;8868;-73
2021/10/05 11:16:59;;;;;;;;;1.00;1.00;;;;;;;;5054737;28;8880;-73
2021/10/05 11:19:32;;;;;;;;;0.00;0.00;;;;;;;;5062038;28;10041;-73
2021/10/05 11:22:03;;;;;;;;;0.00;0.00;;;;;;;;5053513;28;9372;-74
2021/10/05 11:24:39;;;;;;;;;0.00;0.00;;;;;;;;5058284;28;8891;-75
2021/10/05 11:27:12;;;;;;;;;0.00;0.00;;;;;;;;5037999;28;9041;-75
2021/10/05 11:29:39;;;;;;;;;0.00;0.00;;;;;;;;5053454;28;8852;-74
2021/10/05 11:32:08;;;;;;;;;0.75;0.75;;;;;;;;5038776;28;8881;-74
2021/10/05 11:34:40;;;;;;;;;0.50;0.00;;;;;;;;5051918;28;9629;-74
2021/10/05 11:37:08;;;;;;;;;0.25;0.25;;;;;;;;5059327;28;8865;-75
2021/10/05 11:39:37;;;;;;;;;0.00;0.00;;;;;;;;5060466;28;8890;-74
2021/10/05 11:42:10;;;;;;;;;0.00;0.00;;;;;;;;5059385;28;9533;-75
2021/10/05 11:44:41;;;;;;;;;1.25;0.75;;;;;;;;5057113;28;8883;-74
2021/10/05 11:47:09;;;;;;;;;1.25;1.00;;;;;;;;5059771;28;8880;-74
2021/10/05 11:49:41;;;;;;;;;1.00;1.00;;;;;;;;5054630;28;8829;-74
2021/10/05 11:52:13;;;;;;;;;0.40;0.40;;;;;;;;5051041;28;8953;-75
2021/10/05 11:54:40;;;;;;;;;1.20;1.00;;;;;;;;5056869;28;8872;-75
2021/10/05 11:57:15;;;;;;;;;1.00;1.00;;;;;;;;5064537;28;9603;-75
2021/10/05 11:59:43;;;;;;;;;1.00;1.00;;;;;;;;5059736;28;9284;-74
2021/10/05 12:02:12;;;;;;;;;2.00;2.00;;;;;;;;5056697;28;8805;-74
2021/10/05 12:04:43;;;;;;;;;3.80;1.80;;;;;;;;5054193;28;9898;-75
2021/10/05 12:07:12;;;;;;;;;2.00;2.00;;;;;;;;5051595;28;8840;-76
2021/10/05 12:09:40;;;;;;;;;1.00;1.00;;;;;;;;5056711;28;8872;-73
2021/10/05 12:12:10;;;;;;;;;0.00;0.00;;;;;;;;5043131;28;9014;-73
2021/10/05 12:14:40;;;;;;;;;0.00;0.00;;;;;;;;5055393;28;8879;-74
2021/10/05 12:17:11;;;;;;;;;0.00;0.00;;;;;;;;5056698;28;8968;-74
2021/10/05 12:19:43;;;;;;;;;0.00;0.00;;;;;;;;5059929;28;8864;-74
2021/10/05 12:22:11;;;;;;;;;0.75;0.00;;;;;;;;5062068;28;8891;-74
2021/10/05 12:24:45;;;;;;;;;0.00;0.00;;;;;;;;5062400;28;8868;-75
2021/10/05 12:27:18;;;;;;;;;3.00;1.00;;;;;;;;5059299;28;9526;-75
2021/10/05 12:29:53;;;;;;;;;2.25;1.00;;;;;;;;5062303;28;8930;-75
2021/10/05 12:32:31;;;;;;;;;1.00;1.00;;;;;;;;5058204;28;8827;-75
2021/10/05 12:35:00;;;;;;;;;0.00;0.00;;;;;;;;5062054;28;8864;-76
2021/10/05 12:37:31;;;;;;;;;1.00;1.00;;;;;;;;5061787;28;8860;-75
2021/10/05 12:40:01;;;;;;;;;0.00;0.00;;;;;;;;5062808;28;8890;-75
2021/10/05 12:42:44;;;;;;;;;0.00;0.00;;;;;;;;5060727;28;8906;-76
2021/10/05 12:45:20;;;;;;;;;0.00;0.00;;;;;;;;5061296;28;8860;-76
2021/10/05 12:47:59;;;;;;;;;1.25;0.75;;;;;;;;5044933;28;8891;-75
2021/10/05 12:50:31;;;;;;;;;0.25;0.25;;;;;;;;5062479;28;8852;-75
2021/10/05 12:53:00;;;;;;;;;0.00;0.00;;;;;;;;5058020;28;8866;-75
2021/10/05 12:55:28;;;;;;;;;1.00;0.00;;;;;;;;5057899;28;8848;-74
2021/10/05 12:57:55;;;;;;;;;0.00;0.00;;;;;;;;5059687;28;8863;-73
2021/10/05 13:00:23;;;;;;;;;1.25;0.00;;;;;;;;5060817;28;8852;-74
2021/10/05 13:02:51;;;;;;;;;1.00;0.00;;;;;;;;5058403;28;8969;-74
2021/10/05 13:05:19;;;;;;;;;0.00;0.00;;;;;;;;5060921;28;8898;-75
2021/10/05 13:07:49;;;;;;;;;0.00;0.00;;;;;;;;5037356;28;8862;-74
2021/10/05 13:10:18;;;;;;;;;0.00;0.00;;;;;;;;5061422;28;8886;-75
2021/10/05 13:12:45;;;;;;;;;0.00;0.00;;;;;;;;5059591;28;8910;-73
2021/10/05 13:15:12;;;;;;;;;0.00;0.00;;;;;;;;5038625;28;8860;-73
2021/10/05 13:17:41;;;;;;;;;0.00;0.00;;;;;;;;5059357;28;8935;-74
2021/10/05 13:20:11;;;;;;;;;0.00;0.00;;;;;;;;5059703;28;8849;-74
2021/10/05 13:22:39;;;;;;;;;0.00;0.00;;;;;;;;5060959;28;8997;-74
2021/10/05 13:25:09;;;;;;;;;2.00;0.00;;;;;;;;5058146;28;8975;-73
2021/10/05 13:27:37;;;;;;;;;1.75;0.00;;;;;;;;5055454;28;8886;-78
2021/10/05 13:30:06;;;;;;;;;0.00;0.00;;;;;;;;5064368;28;8867;-75
2021/10/05 13:32:35;;;;;;;;;0.00;0.00;;;;;;;;5061827;28;8864;-75
2021/10/05 13:35:03;;;;;;;;;0.00;0.00;;;;;;;;5056143;28;9636;-75
2021/10/05 13:37:32;;;;;;;;;0.00;0.00;;;;;;;;5060969;28;8990;-75
2021/10/05 13:39:59;;;;;;;;;0.25;0.00;;;;;;;;5044616;28;8880;-75
2021/10/05 13:42:28;;;;;;;;;0.00;0.00;;;;;;;;5058190;28;8903;-75
2021/10/05 13:44:56;;;;;;;;;0.00;0.00;;;;;;;;5059956;28;8853;-76
2021/10/05 13:47:23;;;;;;;;;0.00;0.00;;;;;;;;5064924;28;8963;-75
2021/10/05 13:49:51;;;;;;;;;0.00;0.00;;;;;;;;5058830;28;8852;-75
2021/10/05 13:52:19;;;;;;;;;1.00;0.00;;;;;;;;5064067;28;8880;-75
2021/10/05 13:54:46;;;;;;;;;0.40;0.00;;;;;;;;5060806;28;8876;-75
2021/10/05 13:57:14;;;;;;;;;0.00;0.00;;;;;;;;5063208;28;8891;-75
2021/10/05 13:59:42;;;;;;;;;0.00;0.00;;;;;;;;5060868;28;8878;-75
2021/10/05 14:02:10;;;;;;;;;1.00;1.00;;;;;;;;5060273;28;8818;-75
2021/10/05 14:04:39;;;;;;;;;0.00;0.00;;;;;;;;5063378;28;8856;-75
2021/10/05 14:07:07;;;;;;;;;0.00;0.00;;;;;;;;5061332;28;8860;-75
2021/10/05 14:09:34;;;;;;;;;0.00;0.00;;;;;;;;5063987;28;9038;-75
2021/10/05 14:12:01;;;;;;;;;0.80;0.00;;;;;;;;5064049;28;8909;-75
2021/10/05 14:14:28;;;;;;;;;0.00;0.00;;;;;;;;5058702;28;8863;-75
2021/10/05 14:16:57;;;;;;;;;0.00;0.00;;;;;;;;5061502;28;8864;-75
2021/10/05 14:19:24;;;;;;;;;0.00;0.00;;;;;;;;5061266;28;8896;-75
2021/10/05 14:21:51;;;;;;;;;1.00;0.00;;;;;;;;5061663;28;8990;-75
2021/10/05 14:24:19;;;;;;;;;0.00;0.00;;;;;;;;5062180;28;9621;-75
2021/10/05 14:26:46;;;;;;;;;2.00;0.00;;;;;;;;5061887;28;8945;-74
2021/10/05 14:29:14;;;;;;;;;0.00;0.00;;;;;;;;5061302;28;9642;-74
2021/10/05 14:31:41;;;;;;;;;0.00;0.00;;;;;;;;5064062;28;8840;-73
2021/10/05 14:34:10;;;;;;;;;0.00;0.00;;;;;;;;5063425;28;8844;-74
2021/10/05 14:36:37;;;;;;;;;0.00;0.00;;;;;;;;5065245;28;8880;-75
2021/10/05 14:39:04;;;;;;;;;0.00;0.00;;;;;;;;5046917;28;8882;-74
2021/10/05 14:41:31;;;;;;;;;0.25;0.25;;;;;;;;5063654;28;8880;-75
2021/10/05 14:43:59;;;;;;;;;0.00;0.00;;;;;;;;5064822;28;8987;-74
2021/10/05 14:46:27;;;;;;;;;0.00;0.00;;;;;;;;5051062;28;9618;-73
2021/10/05 14:48:55;;;;;;;;;0.00;0.00;;;;;;;;5064354;28;9018;-75
2021/10/05 14:51:24;;;;;;;;;0.00;0.00;;;;;;;;5063833;28;8875;-75
2021/10/05 14:53:51;;;;;;;;;0.00;0.00;;;;;;;;5064936;28;8876;-75
2021/10/05 14:56:18;;;;;;;;;0.00;0.00;;;;;;;;5064102;28;8857;-74
2021/10/05 14:58:46;;;;;;;;;0.50;0.00;;;;;;;;5064324;28;8888;-73
2021/10/05 15:01:13;;;;;;;;;0.00;0.00;;;;;;;;5063816;28;8901;-74
2021/10/05 15:03:40;;;;;;;;;0.00;0.00;;;;;;;;5063103;28;8927;-73
2021/10/05 15:06:10;;;;;;;;;0.00;0.00;;;;;;;;5064839;28;8860;-73